sensor_id;sensor_type;location;lat;lon;timestamp;pressure;altitude;pressure_sealevel;temperature
16956;BMP180;8594;52.052;8.354;2023-04-06T00:00:33;100928.00;;;9.50
16956;BMP180;8594;52.052;8.354;2023-04-06T00:03:00;100917.00;;;9.30
16956;BMP180;8594;52.052;8.354;2023-04-06T00:05:26;100918.00;;;9.50
16956;BMP180;8594;52.052;8.354;2023-04-06T00:07:57;100907.00;;;9.10
16956;BMP180;8594;52.052;8.354;2023-04-06T00:10:24;100914.00;;;9.20
16956;BMP180;8594;52.052;8.354;2023-04-06T00:12:53;100906.00;;;8.50
16956;BMP180;8594;52.052;8.354;2023-04-06T00:15:20;100899.00;;;8.40
16956;BMP180;8594;52.052;8.354;2023-04-06T00:17:47;100900.00;;;8.90
16956;BMP180;8594;52.052;8.354;2023-04-06T00:20:13;100897.00;;;9.00
16956;BMP180;8594;52.052;8.354;2023-04-06T00:22:40;100901.00;;;9.00
16956;BMP180;8594;52.052;8.354;2023-04-06T00:25:08;100894.00;;;8.60
16956;BMP180;8594;52.052;8.354;2023-04-06T00:27:35;100895.00;;;8.00
16956;BMP180;8594;52.052;8.354;2023-04-06T00:30:05;100885.00;;;8.40
16956;BMP180;8594;52.052;8.354;2023-04-06T00:32:32;100879.00;;;8.20
16956;BMP180;8594;52.052;8.354;2023-04-06T00:34:59;100877.00;;;7.80
16956;BMP180;8594;52.052;8.354;2023-04-06T00:37:25;100877.00;;;7.80
16956;BMP180;8594;52.052;8.354;2023-04-06T00:39:52;100874.00;;;8.00
16956;BMP180;8594;52.052;8.354;2023-04-06T00:42:21;100872.00;;;8.40
16956;BMP180;8594;52.052;8.354;2023-04-06T00:44:52;100870.00;;;8.60
16956;BMP180;8594;52.052;8.354;2023-04-06T00:47:21;100861.00;;;7.90
16956;BMP180;8594;52.052;8.354;2023-04-06T00:49:48;100858.00;;;8.20
16956;BMP180;8594;52.052;8.354;2023-04-06T00:52:15;100860.00;;;8.30
16956;BMP180;8594;52.052;8.354;2023-04-06T00:54:42;100868.00;;;8.50
16956;BMP180;8594;52.052;8.354;2023-04-06T00:57:10;100861.00;;;8.50
16956;BMP180;8594;52.052;8.354;2023-04-06T00:59:38;100860.00;;;8.10
16956;BMP180;8594;52.052;8.354;2023-04-06T01:02:05;100858.00;;;8.30
16956;BMP180;8594;52.052;8.354;2023-04-06T01:04:34;100850.00;;;8.20
16956;BMP180;8594;52.052;8.354;2023-04-06T01:07:01;100851.00;;;7.60
16956;BMP180;8594;52.052;8.354;2023-04-06T01:09:29;100846.00;;;7.80
16956;BMP180;8594;52.052;8.354;2023-04-06T01:11:55;100844.00;;;7.80
16956;BMP180;8594;52.052;8.354;2023-04-06T01:14:23;100846.00;;;7.60
16956;BMP180;8594;52.052;8.354;2023-04-06T01:16:51;100847.00;;;7.00
16956;BMP180;8594;52.052;8.354;2023-04-06T01:19:18;100843.00;;;7.30
16956;BMP180;8594;52.052;8.354;2023-04-06T01:21:47;100831.00;;;7.10
16956;BMP180;8594;52.052;8.354;2023-04-06T01:24:17;100831.00;;;7.10
16956;BMP180;8594;52.052;8.354;2023-04-06T01:26:44;100827.00;;;7.30
16956;BMP180;8594;52.052;8.354;2023-04-06T01:29:11;100833.00;;;7.20
16956;BMP180;8594;52.052;8.354;2023-04-06T01:31:39;100836.00;;;7.00
16956;BMP180;8594;52.052;8.354;2023-04-06T01:34:06;100823.00;;;7.30
16956;BMP180;8594;52.052;8.354;2023-04-06T01:36:32;100825.00;;;7.40
16956;BMP180;8594;52.052;8.354;2023-04-06T01:38:59;100819.00;;;7.00
16956;BMP180;8594;52.052;8.354;2023-04-06T01:41:27;100819.00;;;7.20
16956;BMP180;8594;52.052;8.354;2023-04-06T01:43:54;100819.00;;;7.20
16956;BMP180;8594;52.052;8.354;2023-04-06T01:46:22;100820.00;;;6.90
16956;BMP180;8594;52.052;8.354;2023-04-06T01:48:49;100817.00;;;6.90
16956;BMP180;8594;52.052;8.354;2023-04-06T01:51:16;100810.00;;;6.90
16956;BMP180;8594;52.052;8.354;2023-04-06T01:53:43;100810.00;;;7.20
16956;BMP180;8594;52.052;8.354;2023-04-06T01:56:10;100816.00;;;7.30
16956;BMP180;8594;52.052;8.354;2023-04-06T01:58:38;100816.00;;;7.10
16956;BMP180;8594;52.052;8.354;2023-04-06T02:01:05;100806.00;;;7.10
16956;BMP180;8594;52.052;8.354;2023-04-06T02:03:32;100802.00;;;7.00
16956;BMP180;8594;52.052;8.354;2023-04-06T02:05:59;100816.00;;;7.10
16956;BMP180;8594;52.052;8.354;2023-04-06T02:08:26;100802.00;;;7.10
16956;BMP180;8594;52.052;8.354;2023-04-06T02:10:52;100805.00;;;6.90
16956;BMP180;8594;52.052;8.354;2023-04-06T02:13:19;100797.00;;;6.90
16956;BMP180;8594;52.052;8.354;2023-04-06T02:15:47;100804.00;;;7.20
16956;BMP180;8594;52.052;8.354;2023-04-06T02:18:14;100809.00;;;7.70
16956;BMP180;8594;52.052;8.354;2023-04-06T02:20:43;100803.00;;;7.60
16956;BMP180;8594;52.052;8.354;2023-04-06T02:23:10;100796.00;;;7.60
16956;BMP180;8594;52.052;8.354;2023-04-06T02:25:36;100800.00;;;7.10
16956;BMP180;8594;52.052;8.354;2023-04-06T02:28:04;100807.00;;;7.40
16956;BMP180;8594;52.052;8.354;2023-04-06T02:30:30;100797.00;;;7.30
16956;BMP180;8594;52.052;8.354;2023-04-06T02:32:59;100800.00;;;7.60
16956;BMP180;8594;52.052;8.354;2023-04-06T02:35:28;100795.00;;;7.40
16956;BMP180;8594;52.052;8.354;2023-04-06T02:37:55;100793.00;;;7.40
16956;BMP180;8594;52.052;8.354;2023-04-06T02:40:22;100797.00;;;6.90
16956;BMP180;8594;52.052;8.354;2023-04-06T02:42:49;100797.00;;;7.30
16956;BMP180;8594;52.052;8.354;2023-04-06T02:45:16;100798.00;;;7.50
16956;BMP180;8594;52.052;8.354;2023-04-06T02:47:43;100794.00;;;7.30
16956;BMP180;8594;52.052;8.354;2023-04-06T02:50:11;100801.00;;;7.30
16956;BMP180;8594;52.052;8.354;2023-04-06T02:52:38;100792.00;;;7.20
16956;BMP180;8594;52.052;8.354;2023-04-06T02:55:06;100797.00;;;7.20
16956;BMP180;8594;52.052;8.354;2023-04-06T02:57:33;100796.00;;;6.80
16956;BMP180;8594;52.052;8.354;2023-04-06T03:00:00;100793.00;;;7.30
16956;BMP180;8594;52.052;8.354;2023-04-06T03:02:27;100794.00;;;7.30
16956;BMP180;8594;52.052;8.354;2023-04-06T03:04:54;100797.00;;;7.30
16956;BMP180;8594;52.052;8.354;2023-04-06T03:07:22;100795.00;;;7.50
16956;BMP180;8594;52.052;8.354;2023-04-06T03:09:49;100789.00;;;7.30
16956;BMP180;8594;52.052;8.354;2023-04-06T03:12:16;100789.00;;;7.40
16956;BMP180;8594;52.052;8.354;2023-04-06T03:14:43;100788.00;;;7.40
16956;BMP180;8594;52.052;8.354;2023-04-06T03:17:10;100791.00;;;7.60
16956;BMP180;8594;52.052;8.354;2023-04-06T03:19:36;100788.00;;;7.30
16956;BMP180;8594;52.052;8.354;2023-04-06T03:22:03;100782.00;;;6.90
16956;BMP180;8594;52.052;8.354;2023-04-06T03:24:31;100792.00;;;7.20
16956;BMP180;8594;52.052;8.354;2023-04-06T03:26:58;100776.00;;;6.90
16956;BMP180;8594;52.052;8.354;2023-04-06T03:29:25;100783.00;;;7.10
16956;BMP180;8594;52.052;8.354;2023-04-06T03:31:52;100782.00;;;7.30
16956;BMP180;8594;52.052;8.354;2023-04-06T03:34:19;100787.00;;;7.20
16956;BMP180;8594;52.052;8.354;2023-04-06T03:36:46;100780.00;;;7.50
16956;BMP180;8594;52.052;8.354;2023-04-06T03:39:13;100782.00;;;6.90
16956;BMP180;8594;52.052;8.354;2023-04-06T03:41:41;100786.00;;;7.50
16956;BMP180;8594;52.052;8.354;2023-04-06T03:44:10;100788.00;;;7.20
16956;BMP180;8594;52.052;8.354;2023-04-06T03:46:39;100779.00;;;7.30
16956;BMP180;8594;52.052;8.354;2023-04-06T03:49:06;100790.00;;;7.30
16956;BMP180;8594;52.052;8.354;2023-04-06T03:51:33;100790.00;;;7.30
16956;BMP180;8594;52.052;8.354;2023-04-06T03:54:00;100785.00;;;7.20
16956;BMP180;8594;52.052;8.354;2023-04-06T03:56:28;100788.00;;;7.20
16956;BMP180;8594;52.052;8.354;2023-04-06T03:58:56;100788.00;;;7.10
16956;BMP180;8594;52.052;8.354;2023-04-06T04:01:23;100790.00;;;7.10
16956;BMP180;8594;52.052;8.354;2023-04-06T04:03:50;100795.00;;;7.10
16956;BMP180;8594;52.052;8.354;2023-04-06T04:06:17;100792.00;;;7.10
16956;BMP180;8594;52.052;8.354;2023-04-06T04:08:44;100787.00;;;7.00
16956;BMP180;8594;52.052;8.354;2023-04-06T04:11:11;100785.00;;;6.90
16956;BMP180;8594;52.052;8.354;2023-04-06T04:13:38;100797.00;;;7.10
16956;BMP180;8594;52.052;8.354;2023-04-06T04:16:06;100792.00;;;6.80
16956;BMP180;8594;52.052;8.354;2023-04-06T04:18:33;100787.00;;;7.10
16956;BMP180;8594;52.052;8.354;2023-04-06T04:21:00;100793.00;;;6.90
16956;BMP180;8594;52.052;8.354;2023-04-06T04:23:27;100794.00;;;7.00
16956;BMP180;8594;52.052;8.354;2023-04-06T04:25:53;100785.00;;;7.10
16956;BMP180;8594;52.052;8.354;2023-04-06T04:28:20;100795.00;;;7.00
16956;BMP180;8594;52.052;8.354;2023-04-06T04:30:47;100787.00;;;7.00
16956;BMP180;8594;52.052;8.354;2023-04-06T04:33:16;100793.00;;;7.00
16956;BMP180;8594;52.052;8.354;2023-04-06T04:35:43;100787.00;;;6.70
16956;BMP180;8594;52.052;8.354;2023-04-06T04:38:09;100785.00;;;7.00
16956;BMP180;8594;52.052;8.354;2023-04-06T04:40:36;100785.00;;;6.80
16956;BMP180;8594;52.052;8.354;2023-04-06T04:43:03;100791.00;;;7.10
16956;BMP180;8594;52.052;8.354;2023-04-06T04:45:30;100788.00;;;7.20
16956;BMP180;8594;52.052;8.354;2023-04-06T04:47:57;100782.00;;;7.00
16956;BMP180;8594;52.052;8.354;2023-04-06T04:50:25;100777.00;;;7.20
16956;BMP180;8594;52.052;8.354;2023-04-06T04:52:52;100781.00;;;7.30
16956;BMP180;8594;52.052;8.354;2023-04-06T04:55:19;100785.00;;;7.20
16956;BMP180;8594;52.052;8.354;2023-04-06T04:57:46;100774.00;;;7.20
16956;BMP180;8594;52.052;8.354;2023-04-06T05:00:14;100781.00;;;7.00
16956;BMP180;8594;52.052;8.354;2023-04-06T05:02:41;100782.00;;;7.20
16956;BMP180;8594;52.052;8.354;2023-04-06T05:05:08;100787.00;;;7.20
16956;BMP180;8594;52.052;8.354;2023-04-06T05:07:36;100788.00;;;6.90
16956;BMP180;8594;52.052;8.354;2023-04-06T05:10:04;100782.00;;;7.30
16956;BMP180;8594;52.052;8.354;2023-04-06T05:12:31;100781.00;;;7.30
16956;BMP180;8594;52.052;8.354;2023-04-06T05:14:57;100788.00;;;7.10
16956;BMP180;8594;52.052;8.354;2023-04-06T05:17:25;100793.00;;;7.20
16956;BMP180;8594;52.052;8.354;2023-04-06T05:19:52;100788.00;;;7.40
16956;BMP180;8594;52.052;8.354;2023-04-06T05:22:18;100786.00;;;6.90
16956;BMP180;8594;52.052;8.354;2023-04-06T05:24:47;100782.00;;;7.30
16956;BMP180;8594;52.052;8.354;2023-04-06T05:27:13;100788.00;;;6.90
16956;BMP180;8594;52.052;8.354;2023-04-06T05:29:40;100790.00;;;7.00
16956;BMP180;8594;52.052;8.354;2023-04-06T05:32:07;100793.00;;;6.90
16956;BMP180;8594;52.052;8.354;2023-04-06T05:34:34;100790.00;;;6.80
16956;BMP180;8594;52.052;8.354;2023-04-06T05:37:01;100787.00;;;7.50
16956;BMP180;8594;52.052;8.354;2023-04-06T05:39:28;100779.00;;;7.70
16956;BMP180;8594;52.052;8.354;2023-04-06T05:41:56;100790.00;;;8.30
16956;BMP180;8594;52.052;8.354;2023-04-06T05:44:23;100788.00;;;8.50
16956;BMP180;8594;52.052;8.354;2023-04-06T05:46:49;100782.00;;;9.10
16956;BMP180;8594;52.052;8.354;2023-04-06T05:49:16;100779.00;;;9.20
16956;BMP180;8594;52.052;8.354;2023-04-06T05:51:43;100783.00;;;9.70
16956;BMP180;8594;52.052;8.354;2023-04-06T05:54:10;100786.00;;;9.50
16956;BMP180;8594;52.052;8.354;2023-04-06T05:56:37;100789.00;;;10.00
16956;BMP180;8594;52.052;8.354;2023-04-06T05:59:05;100789.00;;;9.70
16956;BMP180;8594;52.052;8.354;2023-04-06T06:01:33;100795.00;;;9.90
16956;BMP180;8594;52.052;8.354;2023-04-06T06:04:01;100790.00;;;9.10
16956;BMP180;8594;52.052;8.354;2023-04-06T06:06:28;100795.00;;;9.30
16956;BMP180;8594;52.052;8.354;2023-04-06T06:08:55;100794.00;;;9.30
16956;BMP180;8594;52.052;8.354;2023-04-06T06:11:24;100784.00;;;9.50
16956;BMP180;8594;52.052;8.354;2023-04-06T06:13:51;100786.00;;;9.10
16956;BMP180;8594;52.052;8.354;2023-04-06T06:16:20;100783.00;;;9.40
16956;BMP180;8594;52.052;8.354;2023-04-06T06:18:47;100790.00;;;9.70
16956;BMP180;8594;52.052;8.354;2023-04-06T06:21:14;100780.00;;;10.20
16956;BMP180;8594;52.052;8.354;2023-04-06T06:23:43;100773.00;;;10.70
16956;BMP180;8594;52.052;8.354;2023-04-06T06:26:10;100773.00;;;11.60
16956;BMP180;8594;52.052;8.354;2023-04-06T06:28:37;100766.00;;;11.60
16956;BMP180;8594;52.052;8.354;2023-04-06T06:31:04;100776.00;;;12.00
16956;BMP180;8594;52.052;8.354;2023-04-06T06:33:32;100771.00;;;12.90
16956;BMP180;8594;52.052;8.354;2023-04-06T06:35:59;100775.00;;;13.20
16956;BMP180;8594;52.052;8.354;2023-04-06T06:38:26;100775.00;;;13.10
16956;BMP180;8594;52.052;8.354;2023-04-06T06:40:53;100778.00;;;13.60
16956;BMP180;8594;52.052;8.354;2023-04-06T06:43:20;100780.00;;;14.10
16956;BMP180;8594;52.052;8.354;2023-04-06T06:45:46;100775.00;;;13.80
16956;BMP180;8594;52.052;8.354;2023-04-06T06:48:13;100784.00;;;15.10
16956;BMP180;8594;52.052;8.354;2023-04-06T06:50:41;100779.00;;;15.20
16956;BMP180;8594;52.052;8.354;2023-04-06T06:53:08;100785.00;;;15.70
16956;BMP180;8594;52.052;8.354;2023-04-06T06:55:36;100784.00;;;14.80
16956;BMP180;8594;52.052;8.354;2023-04-06T06:58:03;100782.00;;;14.40
16956;BMP180;8594;52.052;8.354;2023-04-06T07:00:30;100779.00;;;14.30
16956;BMP180;8594;52.052;8.354;2023-04-06T07:02:56;100783.00;;;14.90
16956;BMP180;8594;52.052;8.354;2023-04-06T07:05:23;100777.00;;;15.00
16956;BMP180;8594;52.052;8.354;2023-04-06T07:07:52;100774.00;;;14.20
16956;BMP180;8594;52.052;8.354;2023-04-06T07:10:19;100774.00;;;14.50
16956;BMP180;8594;52.052;8.354;2023-04-06T07:12:45;100761.00;;;14.70
16956;BMP180;8594;52.052;8.354;2023-04-06T07:15:12;100774.00;;;15.10
16956;BMP180;8594;52.052;8.354;2023-04-06T07:17:39;100774.00;;;15.70
16956;BMP180;8594;52.052;8.354;2023-04-06T07:20:07;100780.00;;;16.20
16956;BMP180;8594;52.052;8.354;2023-04-06T07:22:35;100772.00;;;16.20
16956;BMP180;8594;52.052;8.354;2023-04-06T07:25:04;100777.00;;;16.30
16956;BMP180;8594;52.052;8.354;2023-04-06T07:27:31;100776.00;;;16.40
16956;BMP180;8594;52.052;8.354;2023-04-06T07:29:58;100777.00;;;16.20
16956;BMP180;8594;52.052;8.354;2023-04-06T07:32:25;100781.00;;;16.10
16956;BMP180;8594;52.052;8.354;2023-04-06T07:34:52;100769.00;;;16.50
16956;BMP180;8594;52.052;8.354;2023-04-06T07:37:18;100776.00;;;16.60
16956;BMP180;8594;52.052;8.354;2023-04-06T07:39:45;100773.00;;;16.90
16956;BMP180;8594;52.052;8.354;2023-04-06T07:42:14;100777.00;;;17.50
16956;BMP180;8594;52.052;8.354;2023-04-06T07:44:40;100779.00;;;17.80
16956;BMP180;8594;52.052;8.354;2023-04-06T07:47:07;100784.00;;;18.30
16956;BMP180;8594;52.052;8.354;2023-04-06T07:49:34;100781.00;;;17.80
16956;BMP180;8594;52.052;8.354;2023-04-06T07:52:01;100771.00;;;16.70
16956;BMP180;8594;52.052;8.354;2023-04-06T07:54:28;100769.00;;;17.20
16956;BMP180;8594;52.052;8.354;2023-04-06T07:56:55;100778.00;;;17.30
16956;BMP180;8594;52.052;8.354;2023-04-06T07:59:23;100774.00;;;17.60
16956;BMP180;8594;52.052;8.354;2023-04-06T08:01:50;100779.00;;;18.00
16956;BMP180;8594;52.052;8.354;2023-04-06T08:04:17;100773.00;;;18.70
16956;BMP180;8594;52.052;8.354;2023-04-06T08:06:44;100769.00;;;18.30
16956;BMP180;8594;52.052;8.354;2023-04-06T08:09:10;100768.00;;;17.90
16956;BMP180;8594;52.052;8.354;2023-04-06T08:11:37;100771.00;;;18.40
16956;BMP180;8594;52.052;8.354;2023-04-06T08:14:04;100769.00;;;17.30
16956;BMP180;8594;52.052;8.354;2023-04-06T08:16:32;100768.00;;;18.10
16956;BMP180;8594;52.052;8.354;2023-04-06T08:18:59;100769.00;;;18.20
16956;BMP180;8594;52.052;8.354;2023-04-06T08:21:26;100772.00;;;18.30
16956;BMP180;8594;52.052;8.354;2023-04-06T08:23:53;100770.00;;;18.00
16956;BMP180;8594;52.052;8.354;2023-04-06T08:26:19;100774.00;;;17.70
16956;BMP180;8594;52.052;8.354;2023-04-06T08:28:46;100773.00;;;17.70
16956;BMP180;8594;52.052;8.354;2023-04-06T08:31:13;100774.00;;;18.50
16956;BMP180;8594;52.052;8.354;2023-04-06T08:33:41;100773.00;;;17.70
16956;BMP180;8594;52.052;8.354;2023-04-06T08:36:10;100779.00;;;18.80
16956;BMP180;8594;52.052;8.354;2023-04-06T08:38:38;100766.00;;;18.40
16956;BMP180;8594;52.052;8.354;2023-04-06T08:41:08;100763.00;;;18.10
16956;BMP180;8594;52.052;8.354;2023-04-06T08:43:46;100765.00;;;19.50
16956;BMP180;8594;52.052;8.354;2023-04-06T08:46:14;100766.00;;;19.50
16956;BMP180;8594;52.052;8.354;2023-04-06T08:48:45;100769.00;;;19.60
16956;BMP180;8594;52.052;8.354;2023-04-06T08:51:15;100760.00;;;19.50
16956;BMP180;8594;52.052;8.354;2023-04-06T08:53:41;100761.00;;;20.40
16956;BMP180;8594;52.052;8.354;2023-04-06T08:56:10;100754.00;;;20.20
16956;BMP180;8594;52.052;8.354;2023-04-06T08:58:39;100766.00;;;19.70
16956;BMP180;8594;52.052;8.354;2023-04-06T09:01:09;100760.00;;;19.10
16956;BMP180;8594;52.052;8.354;2023-04-06T09:03:40;100757.00;;;19.80
16956;BMP180;8594;52.052;8.354;2023-04-06T09:06:09;100762.00;;;19.20
16956;BMP180;8594;52.052;8.354;2023-04-06T09:08:40;100762.00;;;20.60
16956;BMP180;8594;52.052;8.354;2023-04-06T09:11:08;100768.00;;;21.60
16956;BMP180;8594;52.052;8.354;2023-04-06T09:13:46;100769.00;;;21.60
16956;BMP180;8594;52.052;8.354;2023-04-06T09:16:13;100764.00;;;21.20
16956;BMP180;8594;52.052;8.354;2023-04-06T09:18:41;100765.00;;;21.10
16956;BMP180;8594;52.052;8.354;2023-04-06T09:21:10;100752.00;;;20.80
16956;BMP180;8594;52.052;8.354;2023-04-06T09:23:38;100755.00;;;21.70
16956;BMP180;8594;52.052;8.354;2023-04-06T09:26:08;100767.00;;;19.30
16956;BMP180;8594;52.052;8.354;2023-04-06T09:28:46;100759.00;;;20.10
16956;BMP180;8594;52.052;8.354;2023-04-06T09:31:14;100752.00;;;20.10
16956;BMP180;8594;52.052;8.354;2023-04-06T09:33:45;100753.00;;;20.20
16956;BMP180;8594;52.052;8.354;2023-04-06T09:36:14;100752.00;;;20.50
16956;BMP180;8594;52.052;8.354;2023-04-06T09:38:53;100740.00;;;20.80
16956;BMP180;8594;52.052;8.354;2023-04-06T09:41:22;100755.00;;;20.50
16956;BMP180;8594;52.052;8.354;2023-04-06T09:43:50;100749.00;;;20.00
16956;BMP180;8594;52.052;8.354;2023-04-06T09:46:20;100747.00;;;20.60
16956;BMP180;8594;52.052;8.354;2023-04-06T09:48:48;100749.00;;;21.20
16956;BMP180;8594;52.052;8.354;2023-04-06T09:51:18;100747.00;;;21.40
16956;BMP180;8594;52.052;8.354;2023-04-06T09:53:52;100751.00;;;21.10
16956;BMP180;8594;52.052;8.354;2023-04-06T09:56:27;100753.00;;;21.20
16956;BMP180;8594;52.052;8.354;2023-04-06T09:59:02;100743.00;;;21.70
16956;BMP180;8594;52.052;8.354;2023-04-06T10:01:32;100744.00;;;21.70
16956;BMP180;8594;52.052;8.354;2023-04-06T10:04:21;100748.00;;;21.50
16956;BMP180;8594;52.052;8.354;2023-04-06T10:07:23;100740.00;;;20.60
16956;BMP180;8594;52.052;8.354;2023-04-06T10:09:58;100743.00;;;19.60
16956;BMP180;8594;52.052;8.354;2023-04-06T10:12:27;100741.00;;;20.50
16956;BMP180;8594;52.052;8.354;2023-04-06T10:14:55;100731.00;;;20.30
16956;BMP180;8594;52.052;8.354;2023-04-06T10:17:22;100739.00;;;21.60
16956;BMP180;8594;52.052;8.354;2023-04-06T10:19:56;100734.00;;;19.80
16956;BMP180;8594;52.052;8.354;2023-04-06T10:22:38;100744.00;;;21.50
16956;BMP180;8594;52.052;8.354;2023-04-06T10:25:08;100745.00;;;20.50
16956;BMP180;8594;52.052;8.354;2023-04-06T10:27:35;100734.00;;;20.70
16956;BMP180;8594;52.052;8.354;2023-04-06T10:30:04;100740.00;;;19.80
16956;BMP180;8594;52.052;8.354;2023-04-06T10:32:36;100729.00;;;19.50
16956;BMP180;8594;52.052;8.354;2023-04-06T10:35:08;100735.00;;;20.50
16956;BMP180;8594;52.052;8.354;2023-04-06T10:37:52;100736.00;;;21.00
16956;BMP180;8594;52.052;8.354;2023-04-06T10:40:24;100724.00;;;21.40
16956;BMP180;8594;52.052;8.354;2023-04-06T10:42:52;100725.00;;;20.70
16956;BMP180;8594;52.052;8.354;2023-04-06T10:45:21;100725.00;;;21.20
16956;BMP180;8594;52.052;8.354;2023-04-06T10:47:48;100727.00;;;20.90
16956;BMP180;8594;52.052;8.354;2023-04-06T10:50:16;100714.00;;;21.60
16956;BMP180;8594;52.052;8.354;2023-04-06T10:52:44;100721.00;;;20.60
16956;BMP180;8594;52.052;8.354;2023-04-06T10:55:14;100727.00;;;21.00
16956;BMP180;8594;52.052;8.354;2023-04-06T10:58:00;100722.00;;;20.50
16956;BMP180;8594;52.052;8.354;2023-04-06T11:00:30;100718.00;;;20.80
16956;BMP180;8594;52.052;8.354;2023-04-06T11:03:18;100706.00;;;20.20
16956;BMP180;8594;52.052;8.354;2023-04-06T11:05:55;100705.00;;;20.40
16956;BMP180;8594;52.052;8.354;2023-04-06T11:08:45;100718.00;;;20.90
16956;BMP180;8594;52.052;8.354;2023-04-06T11:11:19;100711.00;;;21.10
16956;BMP180;8594;52.052;8.354;2023-04-06T11:13:59;100709.00;;;20.70
16956;BMP180;8594;52.052;8.354;2023-04-06T11:16:30;100700.00;;;21.60
16956;BMP180;8594;52.052;8.354;2023-04-06T11:18:59;100714.00;;;21.10
16956;BMP180;8594;52.052;8.354;2023-04-06T11:21:35;100702.00;;;20.60
16956;BMP180;8594;52.052;8.354;2023-04-06T11:24:11;100716.00;;;21.00
16956;BMP180;8594;52.052;8.354;2023-04-06T11:26:45;100708.00;;;20.80
16956;BMP180;8594;52.052;8.354;2023-04-06T11:29:16;100704.00;;;20.90
16956;BMP180;8594;52.052;8.354;2023-04-06T11:31:47;100700.00;;;20.00
16956;BMP180;8594;52.052;8.354;2023-04-06T11:34:18;100697.00;;;20.40
16956;BMP180;8594;52.052;8.354;2023-04-06T11:36:47;100689.00;;;20.90
16956;BMP180;8594;52.052;8.354;2023-04-06T11:39:20;100694.00;;;19.80
16956;BMP180;8594;52.052;8.354;2023-04-06T11:41:51;100695.00;;;19.50
16956;BMP180;8594;52.052;8.354;2023-04-06T11:44:31;100684.00;;;20.40
16956;BMP180;8594;52.052;8.354;2023-04-06T11:47:01;100687.00;;;19.90
16956;BMP180;8594;52.052;8.354;2023-04-06T11:49:28;100683.00;;;20.10
16956;BMP180;8594;52.052;8.354;2023-04-06T11:51:55;100687.00;;;20.20
16956;BMP180;8594;52.052;8.354;2023-04-06T11:54:33;100684.00;;;20.40
16956;BMP180;8594;52.052;8.354;2023-04-06T11:57:03;100689.00;;;20.60
16956;BMP180;8594;52.052;8.354;2023-04-06T11:59:30;100683.00;;;20.80
16956;BMP180;8594;52.052;8.354;2023-04-06T12:01:57;100677.00;;;20.00
16956;BMP180;8594;52.052;8.354;2023-04-06T12:04:24;100680.00;;;20.70
16956;BMP180;8594;52.052;8.354;2023-04-06T12:06:51;100669.00;;;20.80
16956;BMP180;8594;52.052;8.354;2023-04-06T12:09:18;100674.00;;;20.40
16956;BMP180;8594;52.052;8.354;2023-04-06T12:11:45;100676.00;;;20.20
16956;BMP180;8594;52.052;8.354;2023-04-06T12:14:14;100671.00;;;19.80
16956;BMP180;8594;52.052;8.354;2023-04-06T12:16:42;100674.00;;;19.20
16956;BMP180;8594;52.052;8.354;2023-04-06T12:19:09;100675.00;;;19.50
16956;BMP180;8594;52.052;8.354;2023-04-06T12:21:36;100668.00;;;19.20
16956;BMP180;8594;52.052;8.354;2023-04-06T12:24:04;100661.00;;;19.70
16956;BMP180;8594;52.052;8.354;2023-04-06T12:26:31;100669.00;;;19.60
16956;BMP180;8594;52.052;8.354;2023-04-06T12:28:59;100673.00;;;20.50
16956;BMP180;8594;52.052;8.354;2023-04-06T12:31:35;100668.00;;;19.90
16956;BMP180;8594;52.052;8.354;2023-04-06T12:34:04;100670.00;;;20.00
16956;BMP180;8594;52.052;8.354;2023-04-06T12:36:31;100674.00;;;20.30
16956;BMP180;8594;52.052;8.354;2023-04-06T12:38:58;100674.00;;;19.70
16956;BMP180;8594;52.052;8.354;2023-04-06T12:41:26;100681.00;;;18.80
16956;BMP180;8594;52.052;8.354;2023-04-06T12:43:53;100664.00;;;19.20
16956;BMP180;8594;52.052;8.354;2023-04-06T12:46:20;100667.00;;;18.70
16956;BMP180;8594;52.052;8.354;2023-04-06T12:48:48;100666.00;;;17.90
16956;BMP180;8594;52.052;8.354;2023-04-06T12:51:19;100663.00;;;18.70
16956;BMP180;8594;52.052;8.354;2023-04-06T12:53:46;100668.00;;;19.00
16956;BMP180;8594;52.052;8.354;2023-04-06T12:56:16;100661.00;;;18.70
16956;BMP180;8594;52.052;8.354;2023-04-06T12:58:44;100657.00;;;18.80
16956;BMP180;8594;52.052;8.354;2023-04-06T13:01:11;100659.00;;;19.60
16956;BMP180;8594;52.052;8.354;2023-04-06T13:03:39;100653.00;;;19.60
16956;BMP180;8594;52.052;8.354;2023-04-06T13:06:07;100651.00;;;20.00
16956;BMP180;8594;52.052;8.354;2023-04-06T13:08:35;100661.00;;;20.00
16956;BMP180;8594;52.052;8.354;2023-04-06T13:11:02;100656.00;;;19.20
16956;BMP180;8594;52.052;8.354;2023-04-06T13:13:30;100648.00;;;19.60
16956;BMP180;8594;52.052;8.354;2023-04-06T13:16:01;100646.00;;;20.00
16956;BMP180;8594;52.052;8.354;2023-04-06T13:18:29;100654.00;;;19.90
16956;BMP180;8594;52.052;8.354;2023-04-06T13:20:57;100649.00;;;19.40
16956;BMP180;8594;52.052;8.354;2023-04-06T13:23:26;100646.00;;;19.70
16956;BMP180;8594;52.052;8.354;2023-04-06T13:26:01;100641.00;;;19.60
16956;BMP180;8594;52.052;8.354;2023-04-06T13:28:29;100649.00;;;19.50
16956;BMP180;8594;52.052;8.354;2023-04-06T13:30:58;100643.00;;;19.60
16956;BMP180;8594;52.052;8.354;2023-04-06T13:33:25;100648.00;;;19.30
16956;BMP180;8594;52.052;8.354;2023-04-06T13:35:52;100650.00;;;19.00
16956;BMP180;8594;52.052;8.354;2023-04-06T13:38:19;100648.00;;;18.90
16956;BMP180;8594;52.052;8.354;2023-04-06T13:40:48;100644.00;;;18.70
16956;BMP180;8594;52.052;8.354;2023-04-06T13:43:16;100639.00;;;19.10
16956;BMP180;8594;52.052;8.354;2023-04-06T13:45:49;100641.00;;;19.30
16956;BMP180;8594;52.052;8.354;2023-04-06T13:48:16;100641.00;;;18.90
16956;BMP180;8594;52.052;8.354;2023-04-06T13:50:44;100632.00;;;19.60
16956;BMP180;8594;52.052;8.354;2023-04-06T13:53:11;100632.00;;;19.20
16956;BMP180;8594;52.052;8.354;2023-04-06T13:55:37;100634.00;;;19.70
16956;BMP180;8594;52.052;8.354;2023-04-06T13:58:06;100628.00;;;19.40
16956;BMP180;8594;52.052;8.354;2023-04-06T14:00:32;100626.00;;;19.30
16956;BMP180;8594;52.052;8.354;2023-04-06T14:02:59;100626.00;;;19.00
16956;BMP180;8594;52.052;8.354;2023-04-06T14:05:30;100634.00;;;19.00
16956;BMP180;8594;52.052;8.354;2023-04-06T14:07:57;100629.00;;;18.70
16956;BMP180;8594;52.052;8.354;2023-04-06T14:10:25;100633.00;;;19.30
16956;BMP180;8594;52.052;8.354;2023-04-06T14:12:53;100626.00;;;18.80
16956;BMP180;8594;52.052;8.354;2023-04-06T14:15:21;100626.00;;;18.60
16956;BMP180;8594;52.052;8.354;2023-04-06T14:17:49;100625.00;;;18.70
16956;BMP180;8594;52.052;8.354;2023-04-06T14:20:16;100622.00;;;18.90